首页
METAR-TAF:

METAR-TAF

机场 :

La Crosse, 威斯康辛州, 美国

纬度: 43-52-46N, 经度: 091-15-24W, 海拔: 199米

当前天气观测

该预报发布于28分钟前的17:53 UTC
风速5节,风向北转东北
温度 30°C
湿度 43%
气压 1008 hPa
能見度: 16.1公里
天空无云

METAR: KLSE 041753Z 02005KT 10SM CLR 30/16 A2977 RMK AO2 SLP070 T03000161 10300 20172 58006

时间: 13:21 (18:21 UTC)

预报

该预报发布于1小时和1分钟前的17:20 UTC
预报有效从04日的 18点(UTC)到 05日的 18点(UTC)
风速5节,风向多变
能見度: 10公里
少量云层高于8000英尺
从 04日的 2300点(UTC)
风速3节,风向多变
能見度: 10公里
散云层高于7000英尺
附近有阵雨
从 05日的 0700点(UTC)
风速4节,风向多变
能見度: 10公里
多云层高于6000英尺, 积雨云.
附近有雷暴
从 05日的 1200点(UTC)
风速5节,风向西北
能見度: 10公里
散云层高于6000英尺
多云层高于10000英尺

TAF: KLSE 041720Z 0418/0518 VRB05KT P6SM FEW080 FM042300 VRB03KT P6SM VCSH SCT070 FM050700 VRB04KT P6SM VCTS BKN060CB FM051200 32005KT P6SM SCT060 BKN100

超过4000个机场的气象观测和天气预报(METAR&TAF报告)。

可查询的气象台以黄色和红色小点在地图上表示。

将鼠标移到小点上方,可查看气象台名称。

然后点击查看天气观测和预报。

如需切换地图:点击带黑十字的绿色按钮放大地图;点击带横线的绿色按钮缩小地图;或者点击绿色箭头查看邻近地区的地图。


METAR-TAF: